sensor_id;sensor_type;location;lat;lon;timestamp;pressure;altitude;pressure_sealevel;temperature;humidity
64679;BME280;51094;53.864;27.676;2022-07-29T00:02:15;99618.22;;;15.67;66.83
64679;BME280;51094;53.864;27.676;2022-07-29T00:04:41;99649.06;;;15.84;66.19
64679;BME280;51094;53.864;27.676;2022-07-29T00:07:08;99665.88;;;15.81;66.47
64679;BME280;51094;53.864;27.676;2022-07-29T00:09:36;99560.88;;;15.22;67.08
64679;BME280;51094;53.864;27.676;2022-07-29T00:12:18;99646.53;;;15.73;67.14
64679;BME280;51094;53.864;27.676;2022-07-29T00:14:53;99639.75;;;15.70;67.25
64679;BME280;51094;53.864;27.676;2022-07-29T00:17:20;99612.47;;;15.52;67.43
64679;BME280;51094;53.864;27.676;2022-07-29T00:19:47;99642.50;;;15.69;67.10
64679;BME280;51094;53.864;27.676;2022-07-29T00:22:13;99627.59;;;15.59;67.58
64679;BME280;51094;53.864;27.676;2022-07-29T00:24:40;99601.44;;;15.27;68.11
64679;BME280;51094;53.864;27.676;2022-07-29T00:27:07;99646.53;;;15.52;67.56
64679;BME280;51094;53.864;27.676;2022-07-29T00:29:33;99642.97;;;15.53;68.10
64679;BME280;51094;53.864;27.676;2022-07-29T00:32:02;99656.53;;;15.58;68.03
64679;BME280;51094;53.864;27.676;2022-07-29T00:34:29;99668.28;;;15.63;68.41
64679;BME280;51094;53.864;27.676;2022-07-29T00:37:15;99652.53;;;15.63;68.25
64679;BME280;51094;53.864;27.676;2022-07-29T00:39:42;99653.25;;;15.66;68.55
64679;BME280;51094;53.864;27.676;2022-07-29T00:42:08;99663.88;;;15.64;68.42
64679;BME280;51094;53.864;27.676;2022-07-29T00:44:39;99627.31;;;15.42;68.53
64679;BME280;51094;53.864;27.676;2022-07-29T00:47:08;99647.94;;;15.56;69.00
64679;BME280;51094;53.864;27.676;2022-07-29T00:49:35;99653.19;;;15.56;68.89
64679;BME280;51094;53.864;27.676;2022-07-29T00:52:03;99648.09;;;15.54;68.88
64679;BME280;51094;53.864;27.676;2022-07-29T00:54:34;99650.84;;;15.53;69.13
64679;BME280;51094;53.864;27.676;2022-07-29T00:57:09;99621.31;;;15.30;69.37
64679;BME280;51094;53.864;27.676;2022-07-29T00:59:36;99649.56;;;15.47;69.73
64679;BME280;51094;53.864;27.676;2022-07-29T01:02:03;99647.59;;;15.40;69.59
64679;BME280;51094;53.864;27.676;2022-07-29T01:04:31;99639.78;;;15.28;70.15
64679;BME280;51094;53.864;27.676;2022-07-29T01:07:00;99667.59;;;15.41;70.45
64679;BME280;51094;53.864;27.676;2022-07-29T01:09:29;99643.94;;;15.31;70.16
64679;BME280;51094;53.864;27.676;2022-07-29T01:12:18;99650.25;;;15.28;70.98
64679;BME280;51094;53.864;27.676;2022-07-29T01:14:47;99619.44;;;15.11;70.67
64679;BME280;51094;53.864;27.676;2022-07-29T01:22:42;99676.22;;;15.11;71.18
64679;BME280;51094;53.864;27.676;2022-07-29T01:31:10;99563.63;;;14.69;71.77
64679;BME280;51094;53.864;27.676;2022-07-29T01:33:55;99646.34;;;15.13;72.00
64679;BME280;51094;53.864;27.676;2022-07-29T01:36:33;99631.88;;;14.98;71.96
64679;BME280;51094;53.864;27.676;2022-07-29T01:39:07;99656.34;;;15.08;72.33
64679;BME280;51094;53.864;27.676;2022-07-29T01:41:38;99659.34;;;15.04;72.61
64679;BME280;51094;53.864;27.676;2022-07-29T01:44:20;99652.13;;;14.96;72.80
64679;BME280;51094;53.864;27.676;2022-07-29T01:46:52;99630.84;;;14.69;73.03
64679;BME280;51094;53.864;27.676;2022-07-29T01:49:25;99626.38;;;14.80;72.97
64679;BME280;51094;53.864;27.676;2022-07-29T01:51:59;99635.63;;;14.84;72.88
64679;BME280;51094;53.864;27.676;2022-07-29T01:54:37;99648.13;;;14.81;73.23
64679;BME280;51094;53.864;27.676;2022-07-29T01:57:06;99653.69;;;14.87;73.09
64679;BME280;51094;53.864;27.676;2022-07-29T01:59:36;99656.19;;;14.68;73.16
64679;BME280;51094;53.864;27.676;2022-07-29T02:02:04;99601.50;;;14.54;73.49
64679;BME280;51094;53.864;27.676;2022-07-29T02:04:36;99669.78;;;14.83;73.76
64679;BME280;51094;53.864;27.676;2022-07-29T02:07:05;99656.06;;;14.70;73.86
64679;BME280;51094;53.864;27.676;2022-07-29T02:09:34;99545.66;;;14.01;74.23
64679;BME280;51094;53.864;27.676;2022-07-29T02:12:03;99660.78;;;14.76;74.17
64679;BME280;51094;53.864;27.676;2022-07-29T02:14:35;99674.44;;;14.79;74.02
64679;BME280;51094;53.864;27.676;2022-07-29T02:17:03;99647.44;;;14.79;74.10
64679;BME280;51094;53.864;27.676;2022-07-29T02:19:32;99647.75;;;14.85;73.94
64679;BME280;51094;53.864;27.676;2022-07-29T02:22:00;99666.22;;;14.84;73.83
64679;BME280;51094;53.864;27.676;2022-07-29T02:24:28;99600.22;;;14.48;73.93
64679;BME280;51094;53.864;27.676;2022-07-29T02:26:57;99664.81;;;14.80;74.62
64679;BME280;51094;53.864;27.676;2022-07-29T02:29:26;99659.06;;;14.86;74.55
64679;BME280;51094;53.864;27.676;2022-07-29T02:31:56;99679.75;;;14.89;75.02
64679;BME280;51094;53.864;27.676;2022-07-29T02:34:26;99637.78;;;14.79;74.86
64679;BME280;51094;53.864;27.676;2022-07-29T02:36:54;99638.88;;;14.77;75.06
64679;BME280;51094;53.864;27.676;2022-07-29T02:39:22;99647.19;;;14.82;75.15
64679;BME280;51094;53.864;27.676;2022-07-29T02:41:52;99660.94;;;14.95;74.70
64679;BME280;51094;53.864;27.676;2022-07-29T02:44:24;99663.59;;;14.84;74.64
64679;BME280;51094;53.864;27.676;2022-07-29T02:52:29;99663.19;;;15.00;75.18
64679;BME280;51094;53.864;27.676;2022-07-29T02:55:25;99669.25;;;15.00;75.00
64679;BME280;51094;53.864;27.676;2022-07-29T02:58:24;99663.81;;;14.92;75.24
64679;BME280;51094;53.864;27.676;2022-07-29T03:00:56;99661.13;;;15.03;75.61
64679;BME280;51094;53.864;27.676;2022-07-29T03:03:26;99668.75;;;15.06;75.59
64679;BME280;51094;53.864;27.676;2022-07-29T03:05:55;99674.31;;;15.13;75.51
64679;BME280;51094;53.864;27.676;2022-07-29T03:08:24;99634.28;;;14.90;75.53
64679;BME280;51094;53.864;27.676;2022-07-29T03:10:51;99672.53;;;15.13;75.81
64679;BME280;51094;53.864;27.676;2022-07-29T03:13:19;99640.88;;;15.05;75.41
64679;BME280;51094;53.864;27.676;2022-07-29T03:15:46;99671.47;;;15.25;75.12
64679;BME280;51094;53.864;27.676;2022-07-29T03:18:14;99674.94;;;15.26;75.25
64679;BME280;51094;53.864;27.676;2022-07-29T03:20:41;99654.25;;;15.02;75.41
64679;BME280;51094;53.864;27.676;2022-07-29T03:23:08;99681.75;;;15.17;75.00
64679;BME280;51094;53.864;27.676;2022-07-29T03:25:35;99641.84;;;15.04;75.55
64679;BME280;51094;53.864;27.676;2022-07-29T03:28:02;99678.25;;;15.28;75.19
64679;BME280;51094;53.864;27.676;2022-07-29T03:30:28;99649.06;;;15.12;75.31
64679;BME280;51094;53.864;27.676;2022-07-29T03:32:57;99678.56;;;15.35;75.58
64679;BME280;51094;53.864;27.676;2022-07-29T03:35:24;99628.06;;;15.02;75.61
64679;BME280;51094;53.864;27.676;2022-07-29T03:37:51;99675.91;;;15.46;75.50
64679;BME280;51094;53.864;27.676;2022-07-29T03:40:21;99689.56;;;15.49;75.56
64679;BME280;51094;53.864;27.676;2022-07-29T03:42:49;99661.97;;;15.45;75.72
64679;BME280;51094;53.864;27.676;2022-07-29T03:45:18;99676.09;;;15.54;75.17
64679;BME280;51094;53.864;27.676;2022-07-29T03:47:49;99551.75;;;14.65;75.12
64679;BME280;51094;53.864;27.676;2022-07-29T03:50:22;99660.28;;;15.44;75.53
64679;BME280;51094;53.864;27.676;2022-07-29T03:52:49;99680.88;;;15.49;75.43
64679;BME280;51094;53.864;27.676;2022-07-29T03:55:16;99681.31;;;15.54;75.29
64679;BME280;51094;53.864;27.676;2022-07-29T03:57:44;99683.31;;;15.61;75.57
64679;BME280;51094;53.864;27.676;2022-07-29T04:00:11;99686.50;;;15.65;75.67
64679;BME280;51094;53.864;27.676;2022-07-29T04:02:38;99677.22;;;15.61;75.22
64679;BME280;51094;53.864;27.676;2022-07-29T04:05:11;99689.13;;;15.65;75.36
64679;BME280;51094;53.864;27.676;2022-07-29T04:07:38;99662.91;;;15.65;75.15
64679;BME280;51094;53.864;27.676;2022-07-29T04:10:05;99645.09;;;15.59;74.71
64679;BME280;51094;53.864;27.676;2022-07-29T04:12:32;99687.03;;;15.89;74.81
64679;BME280;51094;53.864;27.676;2022-07-29T04:14:59;99683.94;;;15.75;74.30
64679;BME280;51094;53.864;27.676;2022-07-29T04:17:25;99694.03;;;15.79;74.71
64679;BME280;51094;53.864;27.676;2022-07-29T04:19:52;99670.31;;;15.60;74.81
64679;BME280;51094;53.864;27.676;2022-07-29T04:22:19;99684.44;;;15.69;75.08
64679;BME280;51094;53.864;27.676;2022-07-29T04:24:45;99618.00;;;15.28;75.17
64679;BME280;51094;53.864;27.676;2022-07-29T04:27:12;99702.69;;;16.01;74.78
64679;BME280;51094;53.864;27.676;2022-07-29T04:29:39;99677.78;;;15.85;74.86
64679;BME280;51094;53.864;27.676;2022-07-29T04:32:25;99681.13;;;15.97;74.27
64679;BME280;51094;53.864;27.676;2022-07-29T04:34:53;99635.91;;;15.74;74.27
64679;BME280;51094;53.864;27.676;2022-07-29T04:37:19;99697.19;;;16.13;74.17
64679;BME280;51094;53.864;27.676;2022-07-29T04:39:46;99686.94;;;16.01;74.79
64679;BME280;51094;53.864;27.676;2022-07-29T04:42:13;99678.78;;;15.94;74.76
64679;BME280;51094;53.864;27.676;2022-07-29T04:44:39;99702.28;;;16.05;74.49
64679;BME280;51094;53.864;27.676;2022-07-29T04:47:08;99712.94;;;16.13;74.57
64679;BME280;51094;53.864;27.676;2022-07-29T04:49:38;99720.88;;;16.33;74.29
64679;BME280;51094;53.864;27.676;2022-07-29T04:52:05;99673.19;;;16.18;74.17
64679;BME280;51094;53.864;27.676;2022-07-29T04:54:32;99682.44;;;16.22;73.45
64679;BME280;51094;53.864;27.676;2022-07-29T04:56:59;99717.47;;;16.51;74.02
64679;BME280;51094;53.864;27.676;2022-07-29T04:59:26;99673.47;;;16.24;72.99
64679;BME280;51094;53.864;27.676;2022-07-29T05:01:53;99718.16;;;16.44;73.26
64679;BME280;51094;53.864;27.676;2022-07-29T05:04:19;99673.34;;;16.26;73.06
64679;BME280;51094;53.864;27.676;2022-07-29T05:06:46;99705.03;;;16.53;73.01
64679;BME280;51094;53.864;27.676;2022-07-29T05:09:13;99713.38;;;16.68;72.90
64679;BME280;51094;53.864;27.676;2022-07-29T05:11:39;99722.97;;;16.88;72.49
64679;BME280;51094;53.864;27.676;2022-07-29T05:14:06;99728.34;;;16.87;72.41
64679;BME280;51094;53.864;27.676;2022-07-29T05:16:33;99630.56;;;16.45;72.20
64679;BME280;51094;53.864;27.676;2022-07-29T05:18:59;99723.78;;;17.18;72.13
64679;BME280;51094;53.864;27.676;2022-07-29T05:21:26;99674.28;;;16.94;72.00
64679;BME280;51094;53.864;27.676;2022-07-29T05:23:53;99669.72;;;16.96;71.94
64679;BME280;51094;53.864;27.676;2022-07-29T05:26:19;99725.94;;;17.51;71.24
64679;BME280;51094;53.864;27.676;2022-07-29T05:28:46;99705.75;;;17.42;70.76
64679;BME280;51094;53.864;27.676;2022-07-29T05:31:13;99718.47;;;17.66;71.25
64679;BME280;51094;53.864;27.676;2022-07-29T05:33:41;99744.44;;;17.88;70.15
64679;BME280;51094;53.864;27.676;2022-07-29T05:36:08;99728.34;;;17.91;69.97
64679;BME280;51094;53.864;27.676;2022-07-29T05:38:35;99738.06;;;17.91;69.97
64679;BME280;51094;53.864;27.676;2022-07-29T05:41:03;99738.63;;;17.85;70.06
64679;BME280;51094;53.864;27.676;2022-07-29T05:43:30;99731.56;;;17.85;70.25
64679;BME280;51094;53.864;27.676;2022-07-29T05:45:57;99742.47;;;18.00;69.61
64679;BME280;51094;53.864;27.676;2022-07-29T05:48:24;99742.22;;;17.93;69.33
64679;BME280;51094;53.864;27.676;2022-07-29T05:50:51;99673.63;;;17.58;69.54
64679;BME280;51094;53.864;27.676;2022-07-29T05:53:18;99748.66;;;18.09;68.96
64679;BME280;51094;53.864;27.676;2022-07-29T05:55:47;99726.69;;;17.90;69.15
64679;BME280;51094;53.864;27.676;2022-07-29T05:58:15;99748.78;;;18.17;68.97
64679;BME280;51094;53.864;27.676;2022-07-29T06:00:43;99657.28;;;17.64;68.40
64679;BME280;51094;53.864;27.676;2022-07-29T06:03:09;99740.94;;;17.98;68.48
64679;BME280;51094;53.864;27.676;2022-07-29T06:05:36;99755.47;;;18.02;68.69
64679;BME280;51094;53.864;27.676;2022-07-29T06:08:03;99733.06;;;17.98;68.89
64679;BME280;51094;53.864;27.676;2022-07-29T06:10:32;99754.28;;;18.23;68.91
64679;BME280;51094;53.864;27.676;2022-07-29T06:12:59;99730.97;;;18.28;68.61
64679;BME280;51094;53.864;27.676;2022-07-29T06:15:25;99714.44;;;18.36;67.30
64679;BME280;51094;53.864;27.676;2022-07-29T06:17:52;99753.22;;;18.71;67.55
64679;BME280;51094;53.864;27.676;2022-07-29T06:20:30;99752.38;;;18.71;66.90
64679;BME280;51094;53.864;27.676;2022-07-29T06:22:58;99756.19;;;18.58;66.86
64679;BME280;51094;53.864;27.676;2022-07-29T06:25:25;99759.78;;;18.30;67.39
64679;BME280;51094;53.864;27.676;2022-07-29T06:27:52;99745.50;;;18.05;67.74
64679;BME280;51094;53.864;27.676;2022-07-29T06:30:19;99719.78;;;17.89;67.94
64679;BME280;51094;53.864;27.676;2022-07-29T06:32:45;99754.94;;;17.98;68.57
64679;BME280;51094;53.864;27.676;2022-07-29T06:35:12;99651.03;;;17.18;68.59
64679;BME280;51094;53.864;27.676;2022-07-29T06:37:59;99755.19;;;18.05;69.00
64679;BME280;51094;53.864;27.676;2022-07-29T06:40:26;99745.41;;;18.24;68.25
64679;BME280;51094;53.864;27.676;2022-07-29T06:43:14;99743.16;;;18.29;67.68
64679;BME280;51094;53.864;27.676;2022-07-29T06:45:41;99740.88;;;18.17;67.52
64679;BME280;51094;53.864;27.676;2022-07-29T06:48:09;99754.72;;;18.19;68.55
64679;BME280;51094;53.864;27.676;2022-07-29T06:50:36;99769.75;;;18.36;68.60
64679;BME280;51094;53.864;27.676;2022-07-29T06:53:03;99766.09;;;18.47;68.03
64679;BME280;51094;53.864;27.676;2022-07-29T06:55:30;99765.56;;;18.43;67.04
64679;BME280;51094;53.864;27.676;2022-07-29T06:57:56;99765.31;;;18.37;67.68
64679;BME280;51094;53.864;27.676;2022-07-29T07:00:23;99771.72;;;18.24;67.79
64679;BME280;51094;53.864;27.676;2022-07-29T07:02:50;99770.19;;;18.22;68.03
64679;BME280;51094;53.864;27.676;2022-07-29T07:05:17;99779.75;;;18.23;67.38
64679;BME280;51094;53.864;27.676;2022-07-29T07:07:43;99739.94;;;18.08;67.77
64679;BME280;51094;53.864;27.676;2022-07-29T07:10:10;99780.03;;;18.57;67.13
64679;BME280;51094;53.864;27.676;2022-07-29T07:12:36;99785.88;;;18.60;65.78
64679;BME280;51094;53.864;27.676;2022-07-29T07:15:03;99765.50;;;18.63;66.48
64679;BME280;51094;53.864;27.676;2022-07-29T07:17:30;99767.13;;;18.64;65.25
64679;BME280;51094;53.864;27.676;2022-07-29T07:19:57;99760.16;;;18.72;64.81
64679;BME280;51094;53.864;27.676;2022-07-29T07:22:23;99779.75;;;18.87;63.82
64679;BME280;51094;53.864;27.676;2022-07-29T07:24:50;99794.66;;;18.97;64.18
64679;BME280;51094;53.864;27.676;2022-07-29T07:27:16;99796.25;;;19.07;63.72
64679;BME280;51094;53.864;27.676;2022-07-29T07:29:43;99796.25;;;19.07;63.98
64679;BME280;51094;53.864;27.676;2022-07-29T07:32:09;99771.16;;;18.85;64.05
64679;BME280;51094;53.864;27.676;2022-07-29T07:34:36;99726.97;;;18.62;64.07
64679;BME280;51094;53.864;27.676;2022-07-29T07:37:05;99775.97;;;19.08;64.17
64679;BME280;51094;53.864;27.676;2022-07-29T07:39:31;99774.72;;;19.12;62.57
64679;BME280;51094;53.864;27.676;2022-07-29T07:41:58;99798.97;;;19.15;63.18
64679;BME280;51094;53.864;27.676;2022-07-29T07:44:25;99717.75;;;18.66;63.03
64679;BME280;51094;53.864;27.676;2022-07-29T07:46:52;99798.53;;;19.02;63.89
64679;BME280;51094;53.864;27.676;2022-07-29T07:49:20;99786.53;;;18.90;62.69
64679;BME280;51094;53.864;27.676;2022-07-29T07:51:47;99821.72;;;19.34;64.50
64679;BME280;51094;53.864;27.676;2022-07-29T07:54:16;99807.78;;;19.42;62.47
64679;BME280;51094;53.864;27.676;2022-07-29T07:56:43;99823.09;;;19.56;62.23
64679;BME280;51094;53.864;27.676;2022-07-29T07:59:10;99809.59;;;19.41;60.59
64679;BME280;51094;53.864;27.676;2022-07-29T08:01:36;99835.53;;;19.46;62.15
64679;BME280;51094;53.864;27.676;2022-07-29T08:04:21;99767.72;;;19.03;61.78
64679;BME280;51094;53.864;27.676;2022-07-29T08:06:53;99831.91;;;19.47;62.15
64679;BME280;51094;53.864;27.676;2022-07-29T08:09:21;99830.78;;;19.67;61.58
64679;BME280;51094;53.864;27.676;2022-07-29T08:11:56;99833.34;;;20.03;61.32
64679;BME280;51094;53.864;27.676;2022-07-29T08:14:24;99828.19;;;20.19;60.05
64679;BME280;51094;53.864;27.676;2022-07-29T08:16:51;99798.03;;;20.04;59.45
64679;BME280;51094;53.864;27.676;2022-07-29T08:19:17;99827.81;;;20.14;59.57
64679;BME280;51094;53.864;27.676;2022-07-29T08:21:44;99828.00;;;20.20;60.20
64679;BME280;51094;53.864;27.676;2022-07-29T08:24:11;99848.88;;;20.32;57.91
64679;BME280;51094;53.864;27.676;2022-07-29T08:26:56;99829.50;;;19.97;57.57
64679;BME280;51094;53.864;27.676;2022-07-29T08:29:23;99851.31;;;20.25;58.27
64679;BME280;51094;53.864;27.676;2022-07-29T08:31:49;99844.06;;;20.27;57.83
64679;BME280;51094;53.864;27.676;2022-07-29T08:34:16;99831.22;;;20.32;57.93
64679;BME280;51094;53.864;27.676;2022-07-29T08:36:43;99818.59;;;20.44;56.62
64679;BME280;51094;53.864;27.676;2022-07-29T08:39:15;99836.38;;;20.68;57.41
64679;BME280;51094;53.864;27.676;2022-07-29T08:41:42;99809.59;;;20.63;58.05
64679;BME280;51094;53.864;27.676;2022-07-29T08:44:23;99846.81;;;21.28;56.61
64679;BME280;51094;53.864;27.676;2022-07-29T08:46:56;99793.75;;;21.29;55.16
64679;BME280;51094;53.864;27.676;2022-07-29T08:49:23;99844.19;;;22.17;55.41
64679;BME280;51094;53.864;27.676;2022-07-29T08:51:50;99813.38;;;22.16;53.47
64679;BME280;51094;53.864;27.676;2022-07-29T08:54:18;99827.56;;;22.47;52.66
64679;BME280;51094;53.864;27.676;2022-07-29T08:56:48;99863.41;;;22.82;51.30
64679;BME280;51094;53.864;27.676;2022-07-29T08:59:19;99789.97;;;22.44;49.88
64679;BME280;51094;53.864;27.676;2022-07-29T09:01:48;99843.38;;;22.64;50.12
64679;BME280;51094;53.864;27.676;2022-07-29T09:04:17;99854.72;;;22.49;50.63
64679;BME280;51094;53.864;27.676;2022-07-29T09:06:47;99823.97;;;22.71;49.34
64679;BME280;51094;53.864;27.676;2022-07-29T09:09:14;99852.78;;;22.82;49.04
64679;BME280;51094;53.864;27.676;2022-07-29T09:11:41;99862.06;;;22.15;48.08
64679;BME280;51094;53.864;27.676;2022-07-29T09:14:11;99849.00;;;21.48;50.53
64679;BME280;51094;53.864;27.676;2022-07-29T09:16:57;99795.50;;;21.04;52.09
64679;BME280;51094;53.864;27.676;2022-07-29T09:19:26;99856.59;;;21.43;51.99
64679;BME280;51094;53.864;27.676;2022-07-29T09:21:55;99853.81;;;21.53;52.26
64679;BME280;51094;53.864;27.676;2022-07-29T09:27:21;99779.31;;;21.07;53.13
64679;BME280;51094;53.864;27.676;2022-07-29T09:30:05;99872.00;;;21.97;51.94
64679;BME280;51094;53.864;27.676;2022-07-29T09:32:33;99852.47;;;22.14;50.89
64679;BME280;51094;53.864;27.676;2022-07-29T09:35:21;99841.06;;;21.65;51.07
64679;BME280;51094;53.864;27.676;2022-07-29T09:37:49;99852.13;;;21.84;51.80
64679;BME280;51094;53.864;27.676;2022-07-29T09:40:27;99843.88;;;21.79;51.85
64679;BME280;51094;53.864;27.676;2022-07-29T09:42:54;99856.59;;;21.84;51.74
64679;BME280;51094;53.864;27.676;2022-07-29T09:45:31;99850.31;;;21.93;51.59
64679;BME280;51094;53.864;27.676;2022-07-29T09:47:59;99855.16;;;22.61;49.81
64679;BME280;51094;53.864;27.676;2022-07-29T09:50:37;99870.84;;;22.87;48.82
64679;BME280;51094;53.864;27.676;2022-07-29T09:53:03;99846.19;;;23.09;48.84
64679;BME280;51094;53.864;27.676;2022-07-29T09:55:30;99817.13;;;22.93;48.08
64679;BME280;51094;53.864;27.676;2022-07-29T09:58:16;99834.34;;;23.20;48.13
64679;BME280;51094;53.864;27.676;2022-07-29T10:00:45;99833.25;;;23.60;47.64
64679;BME280;51094;53.864;27.676;2022-07-29T10:03:13;99835.94;;;24.12;46.92
64679;BME280;51094;53.864;27.676;2022-07-29T10:05:40;99829.19;;;24.54;42.25
64679;BME280;51094;53.864;27.676;2022-07-29T10:08:09;99787.34;;;23.74;42.53
64679;BME280;51094;53.864;27.676;2022-07-29T10:10:41;99854.66;;;24.34;43.97
64679;BME280;51094;53.864;27.676;2022-07-29T10:13:11;99808.75;;;24.54;44.08
64679;BME280;51094;53.864;27.676;2022-07-29T10:15:43;99838.88;;;25.27;42.74
64679;BME280;51094;53.864;27.676;2022-07-29T10:18:13;99836.22;;;25.70;40.83
64679;BME280;51094;53.864;27.676;2022-07-29T10:20:40;99805.09;;;25.70;40.28
64679;BME280;51094;53.864;27.676;2022-07-29T10:23:08;99804.22;;;26.19;40.23
64679;BME280;51094;53.864;27.676;2022-07-29T10:25:35;99795.09;;;26.76;40.80
64679;BME280;51094;53.864;27.676;2022-07-29T10:28:02;99830.63;;;27.83;36.61
64679;BME280;51094;53.864;27.676;2022-07-29T10:30:29;99829.34;;;27.40;36.64
64679;BME280;51094;53.864;27.676;2022-07-29T10:33:04;99824.41;;;27.43;36.34
64679;BME280;51094;53.864;27.676;2022-07-29T10:35:44;99823.19;;;27.39;37.56
64679;BME280;51094;53.864;27.676;2022-07-29T10:38:43;99820.63;;;26.98;37.55
64679;BME280;51094;53.864;27.676;2022-07-29T10:44:22;99795.03;;;28.03;35.83
64679;BME280;51094;53.864;27.676;2022-07-29T10:46:51;99830.50;;;29.07;33.68
64679;BME280;51094;53.864;27.676;2022-07-29T10:49:22;99777.72;;;28.19;34.47
64679;BME280;51094;53.864;27.676;2022-07-29T10:52:06;99802.50;;;29.10;34.36
64679;BME280;51094;53.864;27.676;2022-07-29T10:57:21;99813.72;;;31.81;30.90
64679;BME280;51094;53.864;27.676;2022-07-29T11:02:43;99814.53;;;32.28;28.00
64679;BME280;51094;53.864;27.676;2022-07-29T11:05:12;99813.34;;;31.78;28.49
64679;BME280;51094;53.864;27.676;2022-07-29T11:10:47;99811.88;;;35.18;24.79
64679;BME280;51094;53.864;27.676;2022-07-29T11:16:15;99790.28;;;37.33;20.76
64679;BME280;51094;53.864;27.676;2022-07-29T11:21:35;99791.56;;;40.78;15.87
64679;BME280;51094;53.864;27.676;2022-07-29T11:24:24;99803.88;;;42.88;16.31
64679;BME280;51094;53.864;27.676;2022-07-29T11:27:18;99807.97;;;43.44;13.52
64679;BME280;51094;53.864;27.676;2022-07-29T11:29:57;99800.09;;;44.61;13.73
64679;BME280;51094;53.864;27.676;2022-07-29T11:32:36;99808.09;;;42.80;12.23
64679;BME280;51094;53.864;27.676;2022-07-29T11:37:44;99788.56;;;43.85;11.88
64679;BME280;51094;53.864;27.676;2022-07-29T11:40:23;99806.56;;;43.69;12.48
64679;BME280;51094;53.864;27.676;2022-07-29T11:42:50;99811.56;;;45.41;12.60
64679;BME280;51094;53.864;27.676;2022-07-29T11:45:22;99796.81;;;46.39;10.05
64679;BME280;51094;53.864;27.676;2022-07-29T11:48:16;99807.31;;;48.23;10.03
64679;BME280;51094;53.864;27.676;2022-07-29T11:50:58;99751.47;;;49.81;7.50
64679;BME280;51094;53.864;27.676;2022-07-29T11:53:25;99803.94;;;48.66;6.68
64679;BME280;51094;53.864;27.676;2022-07-29T11:55:59;99801.16;;;46.69;7.79
64679;BME280;51094;53.864;27.676;2022-07-29T11:58:28;99795.09;;;47.18;6.34
64679;BME280;51094;53.864;27.676;2022-07-29T12:00:56;99805.09;;;48.53;6.13
64679;BME280;51094;53.864;27.676;2022-07-29T12:03:25;99797.44;;;50.75;5.13
64679;BME280;51094;53.864;27.676;2022-07-29T12:06:03;99785.56;;;51.13;5.33
64679;BME280;51094;53.864;27.676;2022-07-29T12:08:42;99800.31;;;49.77;6.45
64679;BME280;51094;53.864;27.676;2022-07-29T12:11:19;99772.28;;;51.22;6.19
64679;BME280;51094;53.864;27.676;2022-07-29T12:13:50;99794.94;;;51.05;5.39
64679;BME280;51094;53.864;27.676;2022-07-29T12:16:18;99799.91;;;50.26;5.27
64679;BME280;51094;53.864;27.676;2022-07-29T12:19:02;99798.00;;;48.40;6.67
64679;BME280;51094;53.864;27.676;2022-07-29T12:21:50;99791.13;;;46.86;7.93
64679;BME280;51094;53.864;27.676;2022-07-29T12:24:25;99720.53;;;49.28;6.16
64679;BME280;51094;53.864;27.676;2022-07-29T12:26:59;99788.94;;;50.30;6.59
64679;BME280;51094;53.864;27.676;2022-07-29T12:29:27;99775.81;;;48.48;6.76
64679;BME280;51094;53.864;27.676;2022-07-29T12:32:02;99777.47;;;49.33;7.27
64679;BME280;51094;53.864;27.676;2022-07-29T12:34:30;99774.22;;;51.41;5.71
64679;BME280;51094;53.864;27.676;2022-07-29T12:36:57;99763.13;;;52.43;5.48
64679;BME280;51094;53.864;27.676;2022-07-29T12:39:24;99776.88;;;53.33;5.16
64679;BME280;51094;53.864;27.676;2022-07-29T12:41:54;99774.63;;;53.05;6.13
64679;BME280;51094;53.864;27.676;2022-07-29T12:44:46;99767.44;;;52.11;5.71
64679;BME280;51094;53.864;27.676;2022-07-29T12:47:14;99759.50;;;48.31;7.47
64679;BME280;51094;53.864;27.676;2022-07-29T12:49:41;99749.22;;;47.22;8.34
64679;BME280;51094;53.864;27.676;2022-07-29T12:52:30;99753.88;;;48.52;8.18
64679;BME280;51094;53.864;27.676;2022-07-29T12:54:57;99750.94;;;49.16;6.53
64679;BME280;51094;53.864;27.676;2022-07-29T12:57:24;99743.44;;;47.72;8.39
64679;BME280;51094;53.864;27.676;2022-07-29T13:00:00;99646.63;;;42.27;11.14
64679;BME280;51094;53.864;27.676;2022-07-29T13:02:27;99738.16;;;39.63;14.02
64679;BME280;51094;53.864;27.676;2022-07-29T13:04:55;99733.03;;;36.11;17.11
64679;BME280;51094;53.864;27.676;2022-07-29T13:07:28;99720.00;;;33.60;19.50
64679;BME280;51094;53.864;27.676;2022-07-29T13:10:21;99703.00;;;31.49;22.19
64679;BME280;51094;53.864;27.676;2022-07-29T13:13:11;99695.97;;;32.75;20.85
64679;BME280;51094;53.864;27.676;2022-07-29T13:15:38;99715.59;;;33.21;20.52
64679;BME280;51094;53.864;27.676;2022-07-29T13:18:32;99698.66;;;31.36;21.26
64679;BME280;51094;53.864;27.676;2022-07-29T13:21:14;99705.44;;;31.39;21.61
64679;BME280;51094;53.864;27.676;2022-07-29T13:23:42;99722.91;;;30.65;23.56
64679;BME280;51094;53.864;27.676;2022-07-29T13:26:10;99744.81;;;29.39;25.27
64679;BME280;51094;53.864;27.676;2022-07-29T13:28:38;99709.41;;;28.36;25.81
64679;BME280;51094;53.864;27.676;2022-07-29T13:31:04;99710.97;;;27.99;28.09
64679;BME280;51094;53.864;27.676;2022-07-29T13:33:31;99723.78;;;27.70;27.93
64679;BME280;51094;53.864;27.676;2022-07-29T13:35:58;99660.03;;;26.62;29.22
64679;BME280;51094;53.864;27.676;2022-07-29T13:38:24;99718.75;;;26.81;30.39
64679;BME280;51094;53.864;27.676;2022-07-29T13:40:57;99713.47;;;27.74;27.54
64679;BME280;51094;53.864;27.676;2022-07-29T13:43:23;99705.50;;;27.67;28.19
64679;BME280;51094;53.864;27.676;2022-07-29T13:45:50;99657.59;;;28.30;27.22
64679;BME280;51094;53.864;27.676;2022-07-29T13:48:16;99668.22;;;29.56;25.47